createdAt,value
2018-01-26T00:00:06.658Z,89.04
2018-01-26T00:01:06.653Z,89.42
2018-01-26T00:02:06.652Z,88.46
2018-01-26T00:03:06.651Z,88.85
2018-01-26T00:04:06.648Z,88.85
2018-01-26T00:05:06.644Z,88.56
2018-01-26T00:06:06.646Z,88.56
2018-01-26T00:07:06.639Z,89.51
2018-01-26T00:08:06.637Z,88.37
2018-01-26T00:09:06.636Z,88.37
2018-01-26T00:10:06.635Z,88.66
2018-01-26T00:11:06.628Z,88.94
2018-01-26T00:12:06.623Z,88.94
2018-01-26T00:13:06.624Z,88.85
2018-01-26T00:14:06.622Z,88.85
2018-01-26T00:15:06.617Z,89.04
2018-01-26T00:16:06.619Z,88.37
2018-01-26T00:17:06.613Z,88.66
2018-01-26T00:18:06.607Z,88.46
2018-01-26T00:19:06.606Z,88.37
2018-01-26T00:20:06.604Z,88.56
2018-01-26T00:21:06.600Z,88.75
2018-01-26T00:22:06.599Z,88.66
2018-01-26T00:23:06.595Z,89.23
2018-01-26T00:24:06.592Z,89.42
2018-01-26T00:25:06.590Z,89.42
2018-01-26T00:26:06.587Z,89.23
2018-01-26T00:27:06.589Z,89.23
2018-01-26T00:28:06.580Z,89.04
2018-01-26T00:29:06.578Z,89.04
2018-01-26T00:30:06.578Z,88.94
2018-01-26T00:31:06.572Z,89.32
2018-01-26T00:32:06.571Z,89.04
2018-01-26T00:33:06.571Z,88.75
2018-01-26T00:34:06.563Z,88.75
2018-01-26T00:35:06.564Z,89.04
2018-01-26T00:36:06.561Z,88.94
2018-01-26T00:37:06.556Z,88.56
2018-01-26T00:38:06.556Z,88.56
2018-01-26T00:39:06.552Z,88.75
2018-01-26T00:40:06.560Z,88.66
2018-01-26T00:41:06.545Z,88.75
2018-01-26T00:42:06.542Z,88.85
2018-01-26T00:43:06.543Z,89.51
2018-01-26T00:44:06.536Z,89.04
2018-01-26T00:45:06.534Z,88.75
2018-01-26T00:46:06.532Z,88.75
2018-01-26T00:47:06.529Z,89.61
2018-01-26T00:48:06.525Z,88.85
2018-01-26T00:49:06.524Z,88.85
2018-01-26T00:50:06.527Z,88.80
2018-01-26T00:51:06.520Z,89.47
2018-01-26T00:52:06.515Z,88.90
2018-01-26T00:53:06.516Z,89.28
2018-01-26T00:54:06.509Z,89.04
2018-01-26T00:55:06.506Z,89.32
2018-01-26T00:56:06.503Z,88.85
2018-01-26T00:57:06.501Z,89.32
2018-01-26T00:58:06.497Z,89.42
2018-01-26T00:59:06.497Z,89.18
2018-01-26T01:00:06.493Z,88.94
2018-01-26T01:01:06.489Z,89.32
2018-01-26T01:02:06.486Z,89.04
2018-01-26T01:03:06.484Z,88.85
2018-01-26T01:04:06.481Z,89.42
2018-01-26T01:05:06.478Z,89.04
2018-01-26T01:06:06.476Z,88.94
2018-01-26T01:07:06.474Z,89.00
2018-01-26T01:08:06.470Z,89.09
2018-01-26T01:09:06.466Z,88.90
2018-01-26T01:10:06.467Z,89.28
2018-01-26T01:11:06.462Z,89.37
2018-01-26T01:12:06.459Z,89.00
2018-01-26T01:13:06.455Z,89.00
2018-01-26T01:14:06.457Z,89.09
2018-01-26T01:15:06.451Z,89.28
2018-01-26T01:16:06.448Z,89.56
2018-01-26T01:17:06.445Z,89.85
2018-01-26T01:18:06.442Z,89.28
2018-01-26T01:19:06.440Z,90.04
2018-01-26T01:20:06.433Z,90.52
2018-01-26T01:21:06.434Z,90.89
2018-01-26T01:22:06.429Z,89.94
2018-01-26T01:23:06.427Z,90.70
2018-01-26T01:24:06.423Z,90.04
2018-01-26T01:25:06.421Z,89.85
2018-01-26T01:26:06.419Z,90.61
2018-01-26T01:27:06.414Z,90.52
2018-01-26T01:28:06.411Z,90.42
2018-01-26T01:29:06.407Z,90.23
2018-01-26T01:30:06.405Z,90.04
2018-01-26T01:31:06.402Z,90.14
2018-01-26T01:32:06.401Z,90.42
2018-01-26T01:33:06.400Z,90.52
2018-01-26T01:34:06.394Z,89.47
2018-01-26T01:35:06.387Z,89.47
2018-01-26T01:36:06.388Z,89.56
2018-01-26T01:37:06.384Z,89.37
2018-01-26T01:38:06.386Z,89.28
2018-01-26T01:39:06.378Z,89.28
2018-01-26T01:40:06.375Z,89.37
2018-01-26T01:41:06.372Z,89.47
2018-01-26T01:42:06.370Z,88.80
2018-01-26T01:43:06.381Z,89.00
2018-01-26T01:44:06.367Z,88.90
2018-01-26T01:45:06.360Z,89.00
2018-01-26T01:46:06.356Z,88.80
2018-01-26T01:47:06.355Z,89.00
2018-01-26T01:48:06.352Z,88.80
2018-01-26T01:49:06.351Z,88.90
2018-01-26T01:50:06.345Z,88.52
2018-01-26T01:51:06.343Z,88.90
2018-01-26T01:52:06.339Z,88.80
2018-01-26T01:53:06.335Z,89.18
2018-01-26T01:54:06.332Z,89.18
2018-01-26T01:55:06.332Z,89.47
2018-01-26T01:56:06.328Z,89.47
2018-01-26T01:57:06.325Z,88.80
2018-01-26T01:58:06.349Z,89.18
2018-01-26T01:59:06.319Z,89.47
2018-01-26T02:00:06.314Z,89.37
2018-01-26T02:01:06.311Z,89.56
2018-01-26T02:02:06.309Z,89.18
2018-01-26T02:03:06.306Z,90.04
2018-01-26T02:04:06.304Z,89.56
2018-01-26T02:05:06.299Z,89.66
2018-01-26T02:06:06.299Z,89.85
2018-01-26T02:07:06.294Z,90.04
2018-01-26T02:08:06.287Z,89.66
2018-01-26T02:09:06.286Z,89.56
2018-01-26T02:10:06.282Z,89.75
2018-01-26T02:11:06.283Z,89.66
2018-01-26T02:12:06.304Z,89.56
2018-01-26T02:13:06.274Z,89.56
2018-01-26T02:14:06.274Z,89.94
2018-01-26T02:15:06.271Z,89.47
2018-01-26T02:16:06.270Z,89.47
2018-01-26T02:17:06.267Z,89.56
2018-01-26T02:18:06.259Z,89.66
2018-01-26T02:19:06.261Z,89.37
2018-01-26T02:20:06.254Z,89.75
2018-01-26T02:21:06.251Z,89.75
2018-01-26T02:22:06.251Z,89.66
2018-01-26T02:23:06.248Z,89.75
2018-01-26T02:24:06.244Z,89.28
2018-01-26T02:25:06.240Z,89.66
2018-01-26T02:26:06.236Z,89.85
2018-01-26T02:27:06.233Z,89.75
2018-01-26T02:28:06.229Z,89.47
2018-01-26T02:29:06.226Z,89.75
2018-01-26T02:30:06.228Z,89.37
2018-01-26T02:31:06.222Z,89.18
2018-01-26T02:32:06.218Z,89.56
2018-01-26T02:33:06.214Z,89.66
2018-01-26T02:34:06.212Z,89.18
2018-01-26T02:35:06.208Z,89.18
2018-01-26T02:36:06.205Z,89.28
2018-01-26T02:37:06.203Z,89.75
2018-01-26T02:38:06.201Z,89.47
2018-01-26T02:39:06.198Z,89.28
2018-01-26T02:40:06.197Z,89.18
2018-01-26T02:41:06.203Z,89.47
2018-01-26T02:42:06.190Z,88.52
2018-01-26T02:43:06.182Z,88.71
2018-01-26T02:44:06.182Z,88.33
2018-01-26T02:45:06.178Z,88.33
2018-01-26T02:46:06.179Z,88.52
2018-01-26T02:47:06.178Z,88.52
2018-01-26T02:48:06.170Z,88.52
2018-01-26T02:49:06.167Z,88.42
2018-01-26T02:50:06.164Z,88.33
2018-01-26T02:51:06.161Z,88.71
2018-01-26T02:52:06.158Z,88.71
2018-01-26T02:53:06.159Z,88.33
2018-01-26T02:54:06.160Z,88.52
2018-01-26T02:55:06.154Z,89.28
2018-01-26T02:56:06.146Z,89.37
2018-01-26T02:57:06.145Z,89.37
2018-01-26T02:58:06.139Z,88.90
2018-01-26T02:59:06.136Z,89.28
2018-01-26T03:00:06.133Z,89.85
2018-01-26T03:01:06.134Z,89.94
2018-01-26T03:02:06.122Z,90.14
2018-01-26T03:03:06.124Z,90.52
2018-01-26T03:04:06.120Z,90.89
2018-01-26T03:05:06.114Z,89.85
2018-01-26T03:06:06.116Z,90.52
2018-01-26T03:07:06.110Z,90.04
2018-01-26T03:08:06.106Z,90.14
2018-01-26T03:09:06.103Z,89.85
2018-01-26T03:10:06.102Z,89.75
2018-01-26T03:11:06.097Z,89.56
2018-01-26T03:12:06.089Z,89.66
2018-01-26T03:13:06.093Z,89.85
2018-01-26T03:14:06.090Z,89.66
2018-01-26T03:15:06.084Z,89.75
2018-01-26T03:16:06.081Z,89.66
2018-01-26T03:17:06.079Z,89.94
2018-01-26T03:18:06.076Z,89.47
2018-01-26T03:19:06.071Z,89.85
2018-01-26T03:20:06.067Z,89.28
2018-01-26T03:21:06.061Z,89.56
2018-01-26T03:22:06.068Z,89.09
2018-01-26T03:23:06.059Z,89.37
2018-01-26T03:24:06.055Z,89.28
2018-01-26T03:25:06.051Z,89.37
2018-01-26T03:26:06.047Z,89.09
2018-01-26T03:27:06.047Z,89.18
2018-01-26T03:28:06.044Z,89.28
2018-01-26T03:29:06.044Z,89.47
2018-01-26T03:30:06.038Z,89.28
2018-01-26T03:31:06.031Z,89.00
2018-01-26T03:32:06.031Z,89.28
2018-01-26T03:33:06.024Z,89.18
2018-01-26T03:34:06.020Z,89.18
2018-01-26T03:35:06.017Z,89.00
2018-01-26T03:36:06.012Z,89.18
2018-01-26T03:37:06.017Z,88.90
2018-01-26T03:38:06.010Z,89.37
2018-01-26T03:39:06.003Z,89.47
2018-01-26T03:40:06.000Z,88.52
2018-01-26T03:41:05.997Z,89.47
2018-01-26T03:42:05.993Z,89.56
2018-01-26T03:43:05.994Z,89.00
2018-01-26T03:44:05.986Z,88.52
2018-01-26T03:45:05.982Z,89.00
2018-01-26T03:46:05.983Z,88.52
2018-01-26T03:47:05.977Z,89.00
2018-01-26T03:48:05.971Z,89.37
2018-01-26T03:49:05.971Z,89.47
2018-01-26T03:50:05.965Z,89.56
2018-01-26T03:51:05.962Z,89.00
2018-01-26T03:52:05.958Z,89.18
2018-01-26T03:53:05.957Z,89.00
2018-01-26T03:54:05.949Z,89.37
2018-01-26T03:55:05.949Z,89.00
2018-01-26T03:56:05.943Z,88.80
2018-01-26T03:57:05.948Z,89.18
2018-01-26T03:58:05.938Z,89.28
2018-01-26T03:59:05.935Z,88.90
2018-01-26T04:00:05.934Z,89.09
2018-01-26T04:01:05.927Z,88.90
2018-01-26T04:02:05.928Z,89.09
2018-01-26T04:03:05.921Z,89.37
2018-01-26T04:04:05.918Z,88.90
2018-01-26T04:05:05.913Z,89.47
2018-01-26T04:06:05.911Z,89.09
2018-01-26T04:07:05.914Z,89.28
2018-01-26T04:08:05.902Z,88.90
2018-01-26T04:09:05.899Z,89.56
2018-01-26T04:10:05.896Z,89.37
2018-01-26T04:11:05.893Z,89.28
2018-01-26T04:12:05.890Z,89.09
2018-01-26T04:13:05.885Z,89.09
2018-01-26T04:14:05.882Z,89.00
2018-01-26T04:15:05.879Z,89.47
2018-01-26T04:16:05.876Z,89.75
2018-01-26T04:17:05.871Z,89.94
2018-01-26T04:18:05.873Z,89.94
2018-01-26T04:19:05.867Z,89.28
2018-01-26T04:20:05.860Z,89.66
2018-01-26T04:21:05.858Z,89.94
2018-01-26T04:22:05.854Z,90.42
2018-01-26T04:23:05.854Z,90.66
2018-01-26T04:24:05.846Z,90.47
2018-01-26T04:25:05.843Z,90.47
2018-01-26T04:26:05.841Z,90.37
2018-01-26T04:27:05.835Z,90.56
2018-01-26T04:28:05.833Z,90.19
2018-01-26T04:29:05.859Z,90.09
2018-01-26T04:30:05.827Z,90.75
2018-01-26T04:31:05.824Z,90.19
2018-01-26T04:32:05.818Z,90.28
2018-01-26T04:33:05.813Z,90.66
2018-01-26T04:34:05.809Z,90.85
2018-01-26T04:35:05.808Z,91.33
2018-01-26T04:36:05.800Z,91.23
2018-01-26T04:37:05.802Z,91.13
2018-01-26T04:38:05.794Z,91.52
2018-01-26T04:39:05.790Z,91.33
2018-01-26T04:40:05.784Z,91.13
2018-01-26T04:41:05.780Z,91.42
2018-01-26T04:42:05.780Z,91.13
2018-01-26T04:43:05.775Z,91.23
2018-01-26T04:44:05.768Z,91.13
2018-01-26T04:45:05.768Z,91.23
2018-01-26T04:46:05.762Z,91.23
2018-01-26T04:47:05.759Z,91.33
2018-01-26T04:48:05.753Z,91.33
2018-01-26T04:49:05.749Z,91.23
2018-01-26T04:50:05.746Z,91.71
2018-01-26T04:51:05.744Z,91.71
2018-01-26T04:52:05.736Z,91.42
2018-01-26T04:53:05.732Z,91.89
2018-01-26T04:54:05.730Z,92.08
2018-01-26T04:55:05.724Z,92.27
2018-01-26T04:56:05.721Z,92.08
2018-01-26T04:57:05.717Z,91.61
2018-01-26T04:58:05.712Z,92.08
2018-01-26T04:59:05.708Z,91.99
2018-01-26T05:00:05.705Z,91.80
2018-01-26T05:01:05.728Z,92.08
2018-01-26T05:02:05.694Z,91.80
2018-01-26T05:03:05.695Z,92.27
2018-01-26T05:04:05.689Z,91.89
2018-01-26T05:05:05.689Z,92.08
2018-01-26T05:06:05.679Z,92.18
2018-01-26T05:07:05.676Z,91.71
2018-01-26T05:08:05.672Z,91.42
2018-01-26T05:09:05.668Z,91.89
2018-01-26T05:10:05.664Z,91.42
2018-01-26T05:11:05.659Z,91.13
2018-01-26T05:12:05.653Z,91.23
2018-01-26T05:13:05.651Z,91.42
2018-01-26T05:14:05.646Z,91.33
2018-01-26T05:15:05.645Z,91.61
2018-01-26T05:16:05.639Z,91.13
2018-01-26T05:17:05.633Z,91.23
2018-01-26T05:18:05.631Z,91.23
2018-01-26T05:19:05.625Z,91.23
2018-01-26T05:20:05.626Z,91.23
2018-01-26T05:21:05.617Z,91.13
2018-01-26T05:22:05.612Z,91.42
2018-01-26T05:23:05.617Z,91.33
2018-01-26T05:24:05.601Z,91.13
2018-01-26T05:25:05.609Z,91.13
2018-01-26T05:26:05.595Z,91.33
2018-01-26T05:27:05.594Z,91.42
2018-01-26T05:28:05.587Z,91.13
2018-01-26T05:29:05.584Z,91.80
2018-01-26T05:30:05.580Z,91.61
2018-01-26T05:31:05.573Z,91.80
2018-01-26T05:32:05.571Z,91.89
2018-01-26T05:33:05.566Z,92.18
2018-01-26T05:34:05.565Z,92.27
2018-01-26T05:35:05.566Z,92.37
2018-01-26T05:36:05.557Z,92.46
2018-01-26T05:37:05.550Z,92.66
2018-01-26T05:38:05.544Z,92.56
2018-01-26T05:39:05.540Z,92.46
2018-01-26T05:40:05.533Z,92.46
2018-01-26T05:41:05.530Z,92.37
2018-01-26T05:42:05.525Z,92.37
2018-01-26T05:43:05.521Z,92.37
2018-01-26T05:44:05.525Z,92.18
2018-01-26T05:45:05.512Z,92.37
2018-01-26T05:46:05.511Z,92.37
2018-01-26T05:47:05.503Z,92.56
2018-01-26T05:48:05.500Z,91.89
2018-01-26T05:49:05.495Z,92.37
2018-01-26T05:50:05.495Z,92.27
2018-01-26T05:51:05.485Z,92.37
2018-01-26T05:52:05.480Z,92.27
2018-01-26T05:53:05.475Z,92.46
2018-01-26T05:54:05.470Z,92.46
2018-01-26T05:55:05.467Z,92.37
2018-01-26T05:56:05.465Z,92.27
2018-01-26T05:57:05.458Z,92.56
2018-01-26T05:58:05.453Z,92.56
2018-01-26T05:59:05.448Z,92.37
2018-01-26T06:00:05.446Z,92.27
2018-01-26T06:01:05.443Z,92.46
2018-01-26T06:02:05.435Z,92.08
2018-01-26T06:03:05.429Z,92.46
2018-01-26T06:04:05.425Z,92.66
2018-01-26T06:05:05.419Z,92.66
2018-01-26T06:06:05.417Z,92.18
2018-01-26T06:07:05.417Z,92.56
2018-01-26T06:08:05.410Z,92.37
2018-01-26T06:09:05.402Z,92.56
2018-01-26T06:10:05.398Z,92.56
2018-01-26T06:11:05.394Z,92.66
2018-01-26T06:12:05.390Z,92.66
2018-01-26T06:13:05.384Z,92.66
2018-01-26T06:14:05.380Z,92.46
2018-01-26T06:15:05.375Z,92.56
2018-01-26T06:16:05.370Z,92.18
2018-01-26T06:17:05.364Z,92.18
2018-01-26T06:18:05.366Z,92.37
2018-01-26T06:19:05.355Z,92.27
2018-01-26T06:20:05.352Z,92.56
2018-01-26T06:21:05.348Z,92.56
2018-01-26T06:22:05.425Z,92.37
2018-01-26T06:23:05.339Z,92.46
2018-01-26T06:24:05.333Z,92.08
2018-01-26T06:25:05.329Z,92.37
2018-01-26T06:26:05.326Z,92.37
2018-01-26T06:27:05.323Z,91.80
2018-01-26T06:28:05.317Z,92.56
2018-01-26T06:29:05.311Z,92.37
2018-01-26T06:30:05.307Z,92.37
2018-01-26T06:31:05.307Z,92.56
2018-01-26T06:32:05.306Z,92.27
2018-01-26T06:33:05.294Z,92.27
2018-01-26T06:34:05.291Z,91.80
2018-01-26T06:35:05.285Z,91.61
2018-01-26T06:36:05.282Z,91.42
2018-01-26T06:37:05.286Z,91.89
2018-01-26T06:38:05.273Z,91.99
2018-01-26T06:39:05.270Z,92.08
2018-01-26T06:40:05.262Z,91.89
2018-01-26T06:41:05.267Z,91.89
2018-01-26T06:42:05.258Z,91.80
2018-01-26T06:43:05.257Z,91.33
2018-01-26T06:44:05.250Z,91.61
2018-01-26T06:45:05.245Z,91.52
2018-01-26T06:46:05.243Z,91.71
2018-01-26T06:47:05.235Z,91.13
2018-01-26T06:48:05.231Z,90.75
2018-01-26T06:49:05.231Z,90.75
2018-01-26T06:50:05.224Z,90.37
2018-01-26T06:51:05.220Z,90.37
2018-01-26T06:52:05.216Z,90.94
2018-01-26T06:53:05.207Z,90.33
2018-01-26T06:54:05.208Z,90.56
2018-01-26T06:55:05.206Z,90.66
2018-01-26T06:56:05.198Z,91.23
2018-01-26T06:57:05.195Z,90.66
2018-01-26T06:58:05.192Z,90.75
2018-01-26T06:59:05.188Z,90.85
2018-01-26T07:00:05.183Z,90.56
2018-01-26T07:01:05.181Z,90.09
2018-01-26T07:02:05.176Z,90.37
2018-01-26T07:03:05.173Z,90.19
2018-01-26T07:04:05.166Z,89.90
2018-01-26T07:05:05.167Z,89.52
2018-01-26T07:06:05.161Z,89.52
2018-01-26T07:07:05.166Z,89.71
2018-01-26T07:08:05.153Z,90.09
2018-01-26T07:09:05.148Z,90.14
2018-01-26T07:10:05.146Z,89.80
2018-01-26T07:11:05.142Z,89.80
2018-01-26T07:12:05.141Z,89.90
2018-01-26T07:13:05.134Z,90.00
2018-01-26T07:14:05.146Z,89.52
2018-01-26T07:15:05.125Z,90.09
2018-01-26T07:16:05.121Z,89.90
2018-01-26T07:17:05.122Z,89.61
2018-01-26T07:18:05.115Z,88.95
2018-01-26T07:19:05.113Z,89.23
2018-01-26T07:20:05.106Z,89.52
2018-01-26T07:21:05.104Z,89.23
2018-01-26T07:22:05.100Z,89.28
2018-01-26T07:23:05.094Z,89.38
2018-01-26T07:24:05.092Z,89.57
2018-01-26T07:25:05.086Z,89.47
2018-01-26T07:26:05.083Z,89.86
2018-01-26T07:27:05.081Z,90.05
2018-01-26T07:28:05.076Z,89.67
2018-01-26T07:29:05.069Z,89.67
2018-01-26T07:30:05.066Z,90.14
2018-01-26T07:31:05.062Z,90.05
2018-01-26T07:32:05.060Z,89.95
2018-01-26T07:33:05.052Z,90.05
2018-01-26T07:34:05.049Z,90.14
2018-01-26T07:35:05.048Z,90.33
2018-01-26T07:36:05.045Z,89.86
2018-01-26T07:37:05.044Z,89.67
2018-01-26T07:38:05.034Z,90.42
2018-01-26T07:39:05.032Z,90.33
2018-01-26T07:40:05.027Z,90.56
2018-01-26T07:41:05.022Z,90.47
2018-01-26T07:42:05.018Z,90.19
2018-01-26T07:43:05.017Z,90.37
2018-01-26T07:44:05.012Z,89.86
2018-01-26T07:45:05.005Z,90.42
2018-01-26T07:46:05.005Z,90.61
2018-01-26T07:47:05.001Z,90.56
2018-01-26T07:48:04.998Z,90.37
2018-01-26T07:49:04.990Z,90.47
2018-01-26T07:50:04.988Z,90.75
2018-01-26T07:51:04.985Z,90.66
2018-01-26T07:52:04.981Z,90.19
2018-01-26T07:53:04.978Z,90.56
2018-01-26T07:54:04.971Z,90.19
2018-01-26T07:55:04.971Z,90.28
2018-01-26T07:56:04.965Z,89.71
2018-01-26T07:57:04.961Z,89.71
2018-01-26T07:58:04.964Z,90.19
2018-01-26T07:59:04.956Z,90.09
2018-01-26T08:00:04.950Z,89.52
2018-01-26T08:01:04.950Z,90.19
2018-01-26T08:02:04.944Z,90.19
2018-01-26T08:03:05.008Z,89.80
2018-01-26T08:04:04.938Z,89.61
2018-01-26T08:05:04.934Z,89.52
2018-01-26T08:06:04.929Z,89.80
2018-01-26T08:07:04.922Z,90.00
2018-01-26T08:08:04.921Z,89.90
2018-01-26T08:09:04.918Z,89.61
2018-01-26T08:10:04.914Z,90.00
2018-01-26T08:11:04.910Z,89.71
2018-01-26T08:12:04.906Z,89.80
2018-01-26T08:13:04.905Z,90.00
2018-01-26T08:14:04.900Z,89.14
2018-01-26T08:15:04.896Z,89.61
2018-01-26T08:16:04.891Z,89.61
2018-01-26T08:17:04.887Z,89.71
2018-01-26T08:18:04.886Z,89.61
2018-01-26T08:19:04.880Z,89.61
2018-01-26T08:20:04.876Z,89.80
2018-01-26T08:21:04.872Z,89.80
2018-01-26T08:22:04.867Z,89.42
2018-01-26T08:23:04.866Z,89.71
2018-01-26T08:24:04.859Z,89.80
2018-01-26T08:25:04.856Z,89.42
2018-01-26T08:26:04.851Z,89.52
2018-01-26T08:27:04.848Z,89.33
2018-01-26T08:28:04.847Z,89.61
2018-01-26T08:29:04.840Z,89.80
2018-01-26T08:30:04.840Z,89.52
2018-01-26T08:31:04.833Z,89.04
2018-01-26T08:32:04.828Z,89.61
2018-01-26T08:33:04.825Z,89.42
2018-01-26T08:34:04.818Z,89.52
2018-01-26T08:35:04.817Z,89.52
2018-01-26T08:36:04.812Z,89.52
2018-01-26T08:37:04.812Z,88.95
2018-01-26T08:38:04.807Z,89.04
2018-01-26T08:39:04.802Z,88.85
2018-01-26T08:40:04.798Z,89.14
2018-01-26T08:41:04.792Z,89.42
2018-01-26T08:42:04.797Z,88.00
2018-01-26T08:43:04.786Z,89.42
2018-01-26T08:44:04.782Z,89.33
2018-01-26T08:45:04.779Z,89.23
2018-01-26T08:46:04.777Z,88.95
2018-01-26T08:47:04.776Z,89.14
2018-01-26T08:48:04.770Z,89.23
2018-01-26T08:49:04.851Z,88.57
2018-01-26T08:50:04.762Z,89.14
2018-01-26T08:51:04.758Z,89.14
2018-01-26T08:52:04.752Z,89.14
2018-01-26T08:53:04.750Z,89.23
2018-01-26T08:54:04.747Z,89.04
2018-01-26T08:55:04.742Z,89.14
2018-01-26T08:56:04.741Z,89.33
2018-01-26T08:57:04.735Z,88.76
2018-01-26T08:58:04.731Z,88.76
2018-01-26T08:59:04.731Z,88.95
2018-01-26T09:00:04.724Z,88.57
2018-01-26T09:01:04.718Z,88.47
2018-01-26T09:02:04.717Z,88.38
2018-01-26T09:03:04.714Z,88.38
2018-01-26T09:04:04.710Z,88.19
2018-01-26T09:05:04.705Z,88.09
2018-01-26T09:06:04.700Z,89.04
2018-01-26T09:07:04.698Z,89.23
2018-01-26T09:08:04.695Z,89.14
2018-01-26T09:09:04.691Z,89.23
2018-01-26T09:10:04.688Z,88.95
2018-01-26T09:11:04.683Z,89.04
2018-01-26T09:12:04.680Z,89.14
2018-01-26T09:13:04.676Z,89.14
2018-01-26T09:14:04.677Z,89.14
2018-01-26T09:15:04.670Z,89.14
2018-01-26T09:16:04.696Z,88.57
2018-01-26T09:17:04.663Z,88.76
2018-01-26T09:18:04.658Z,88.19
2018-01-26T09:19:04.656Z,88.38
2018-01-26T09:20:04.651Z,88.47
2018-01-26T09:21:04.650Z,88.09
2018-01-26T09:22:04.645Z,88.76
2018-01-26T09:23:04.640Z,89.14
2018-01-26T09:24:04.636Z,89.04
2018-01-26T09:25:04.633Z,88.28
2018-01-26T09:26:04.629Z,88.47
2018-01-26T09:27:04.627Z,88.67
2018-01-26T09:28:04.632Z,88.00
2018-01-26T09:29:04.624Z,88.38
2018-01-26T09:30:04.617Z,88.19
2018-01-26T09:31:04.613Z,88.47
2018-01-26T09:32:04.608Z,88.67
2018-01-26T09:33:04.610Z,88.47
2018-01-26T09:34:04.608Z,87.90
2018-01-26T09:35:04.598Z,87.90
2018-01-26T09:36:04.594Z,88.09
2018-01-26T09:37:04.591Z,87.62
2018-01-26T09:38:04.589Z,87.52
2018-01-26T09:39:04.584Z,87.90
2018-01-26T09:40:04.580Z,87.90
2018-01-26T09:41:04.582Z,87.90
2018-01-26T09:42:04.575Z,87.62
2018-01-26T09:43:04.573Z,87.62
2018-01-26T09:44:04.567Z,88.23
2018-01-26T09:45:04.586Z,88.23
2018-01-26T09:46:04.562Z,87.52
2018-01-26T09:47:04.557Z,87.90
2018-01-26T09:48:04.552Z,88.13
2018-01-26T09:49:04.549Z,87.62
2018-01-26T09:50:04.546Z,87.24
2018-01-26T09:51:04.543Z,87.34
2018-01-26T09:52:04.539Z,87.14
2018-01-26T09:53:04.535Z,87.05
2018-01-26T09:54:04.532Z,87.34
2018-01-26T09:55:04.524Z,87.43
2018-01-26T09:56:04.523Z,87.14
2018-01-26T09:57:04.521Z,87.14
2018-01-26T09:58:04.518Z,87.62
2018-01-26T09:59:04.517Z,86.95
2018-01-26T10:00:04.550Z,87.62
2018-01-26T10:01:04.507Z,87.24
2018-01-26T10:02:04.501Z,87.52
2018-01-26T10:03:04.498Z,87.24
2018-01-26T10:04:04.495Z,87.34
2018-01-26T10:05:04.491Z,87.14
2018-01-26T10:06:04.487Z,87.24
2018-01-26T10:07:04.488Z,87.14
2018-01-26T10:08:04.480Z,86.95
2018-01-26T10:09:04.478Z,86.95
2018-01-26T10:10:04.475Z,86.95
2018-01-26T10:11:04.473Z,87.34
2018-01-26T10:12:04.468Z,86.99
2018-01-26T10:13:04.461Z,87.28
2018-01-26T10:14:04.457Z,87.28
2018-01-26T10:15:04.456Z,87.28
2018-01-26T10:16:04.451Z,87.09
2018-01-26T10:17:04.447Z,87.09
2018-01-26T10:18:04.446Z,87.28
2018-01-26T10:19:04.442Z,87.28
2018-01-26T10:20:04.436Z,87.09
2018-01-26T10:21:04.434Z,87.38
2018-01-26T10:22:04.429Z,87.57
2018-01-26T10:23:04.425Z,87.38
2018-01-26T10:24:04.422Z,87.34
2018-01-26T10:25:04.416Z,87.24
2018-01-26T10:26:04.415Z,86.86
2018-01-26T10:27:04.414Z,87.05
2018-01-26T10:28:04.436Z,86.90
2018-01-26T10:29:04.405Z,87.14
2018-01-26T10:30:04.404Z,87.71
2018-01-26T10:31:04.396Z,87.90
2018-01-26T10:32:04.391Z,88.00
2018-01-26T10:33:04.388Z,88.19
2018-01-26T10:34:04.384Z,87.81
2018-01-26T10:35:04.380Z,87.95
2018-01-26T10:36:04.378Z,87.71
2018-01-26T10:37:04.373Z,88.00
2018-01-26T10:38:04.373Z,87.14
2018-01-26T10:39:04.370Z,87.24
2018-01-26T10:40:04.360Z,87.19
2018-01-26T10:41:04.358Z,87.28
2018-01-26T10:42:04.355Z,86.99
2018-01-26T10:43:04.354Z,87.28
2018-01-26T10:44:04.346Z,87.09
2018-01-26T10:45:04.344Z,87.28
2018-01-26T10:46:04.340Z,87.19
2018-01-26T10:47:04.335Z,87.28
2018-01-26T10:48:04.333Z,87.19
2018-01-26T10:49:04.327Z,87.28
2018-01-26T10:50:04.324Z,87.14
2018-01-26T10:51:04.319Z,87.81
2018-01-26T10:52:04.315Z,87.85
2018-01-26T10:53:04.316Z,87.28
2018-01-26T10:54:04.313Z,87.19
2018-01-26T10:55:04.304Z,87.28
2018-01-26T10:56:04.298Z,87.38
2018-01-26T10:57:04.296Z,87.19
2018-01-26T10:58:04.292Z,87.09
2018-01-26T10:59:04.318Z,86.90
2018-01-26T11:00:04.289Z,87.09
2018-01-26T11:01:04.280Z,87.09
2018-01-26T11:02:04.276Z,87.09
2018-01-26T11:03:04.275Z,86.99
2018-01-26T11:04:04.266Z,86.99
2018-01-26T11:05:04.262Z,87.47
2018-01-26T11:06:04.261Z,87.47
2018-01-26T11:07:04.256Z,87.19
2018-01-26T11:08:04.253Z,87.47
2018-01-26T11:09:04.266Z,87.19
2018-01-26T11:10:04.244Z,87.28
2018-01-26T11:11:04.240Z,87.28
2018-01-26T11:12:04.250Z,87.19
2018-01-26T11:13:04.279Z,87.09
2018-01-26T11:14:04.229Z,87.19
2018-01-26T11:15:04.227Z,86.99
2018-01-26T11:16:04.220Z,87.95
2018-01-26T11:17:04.216Z,86.80
2018-01-26T11:18:04.212Z,87.19
2018-01-26T11:19:04.209Z,87.09
2018-01-26T11:20:04.202Z,87.28
2018-01-26T11:21:04.199Z,86.99
2018-01-26T11:22:04.205Z,86.80
2018-01-26T11:23:04.195Z,87.28
2018-01-26T11:24:04.195Z,87.47
2018-01-26T11:25:04.182Z,87.28
2018-01-26T11:26:04.180Z,86.99
2018-01-26T11:27:04.179Z,87.19
2018-01-26T11:28:04.171Z,87.28
2018-01-26T11:29:04.167Z,87.09
2018-01-26T11:30:04.162Z,86.80
2018-01-26T11:31:04.160Z,87.19
2018-01-26T11:32:04.151Z,87.28
2018-01-26T11:33:04.152Z,87.47
2018-01-26T11:34:04.148Z,86.99
2018-01-26T11:35:04.144Z,87.38
2018-01-26T11:36:04.140Z,87.38
2018-01-26T11:37:04.138Z,87.09
2018-01-26T11:38:04.131Z,87.09
2018-01-26T11:39:04.128Z,87.09
2018-01-26T11:40:04.121Z,87.28
2018-01-26T11:41:04.119Z,87.28
2018-01-26T11:42:04.117Z,87.09
2018-01-26T11:43:04.113Z,87.19
2018-01-26T11:44:04.109Z,87.09
2018-01-26T11:45:04.105Z,87.19
2018-01-26T11:46:04.101Z,87.38
2018-01-26T11:47:04.099Z,87.19
2018-01-26T11:48:04.095Z,87.28
2018-01-26T11:49:04.089Z,86.71
2018-01-26T11:50:04.084Z,86.80
2018-01-26T11:51:04.085Z,86.99
2018-01-26T11:52:04.077Z,87.09
2018-01-26T11:53:04.073Z,87.09
2018-01-26T11:54:04.071Z,87.09
2018-01-26T11:55:04.067Z,87.47
2018-01-26T11:56:04.063Z,87.28
2018-01-26T11:57:04.059Z,87.09
2018-01-26T11:58:04.055Z,87.28
2018-01-26T11:59:04.052Z,87.13
2018-01-26T12:00:04.048Z,86.99
2018-01-26T12:01:04.045Z,86.99
2018-01-26T12:02:04.040Z,86.90
2018-01-26T12:03:04.034Z,86.71
2018-01-26T12:04:04.032Z,87.04
2018-01-26T12:05:04.029Z,86.94
2018-01-26T12:06:04.033Z,86.66
2018-01-26T12:07:04.022Z,86.76
2018-01-26T12:08:04.017Z,87.13
2018-01-26T12:09:04.014Z,86.71
2018-01-26T12:10:04.009Z,86.52
2018-01-26T12:11:04.005Z,87.19
2018-01-26T12:12:04.004Z,86.52
2018-01-26T12:13:04.010Z,86.71
2018-01-26T12:14:03.999Z,86.99
2018-01-26T12:15:03.992Z,86.99
2018-01-26T12:16:03.986Z,86.71
2018-01-26T12:17:03.986Z,87.19
2018-01-26T12:18:03.982Z,86.71
2018-01-26T12:19:03.976Z,87.09
2018-01-26T12:20:03.971Z,86.99
2018-01-26T12:21:03.968Z,86.99
2018-01-26T12:22:03.963Z,86.90
2018-01-26T12:23:03.959Z,87.38
2018-01-26T12:24:04.002Z,87.09
2018-01-26T12:25:03.952Z,86.80
2018-01-26T12:26:03.947Z,86.90
2018-01-26T12:27:03.943Z,86.61
2018-01-26T12:28:03.938Z,86.80
2018-01-26T12:29:03.936Z,86.99
2018-01-26T12:30:03.934Z,86.90
2018-01-26T12:31:03.927Z,86.90
2018-01-26T12:32:03.924Z,86.80
2018-01-26T12:33:03.918Z,86.90
2018-01-26T12:34:03.916Z,86.52
2018-01-26T12:35:03.913Z,86.99
2018-01-26T12:36:03.906Z,86.71
2018-01-26T12:37:03.904Z,86.71
2018-01-26T12:38:03.901Z,86.52
2018-01-26T12:39:03.896Z,87.09
2018-01-26T12:40:03.888Z,86.71
2018-01-26T12:41:03.886Z,86.71
2018-01-26T12:42:03.884Z,86.99
2018-01-26T12:43:03.879Z,86.80
2018-01-26T12:44:03.876Z,87.09
2018-01-26T12:45:03.871Z,86.61
2018-01-26T12:46:03.865Z,86.71
2018-01-26T12:47:03.864Z,86.99
2018-01-26T12:48:03.857Z,86.71
2018-01-26T12:49:03.856Z,86.99
2018-01-26T12:50:03.850Z,86.61
2018-01-26T12:51:03.847Z,86.90
2018-01-26T12:52:03.840Z,87.57